createdAt,value
2022-12-01T00:02:13.907Z,7.20
2022-12-01T00:04:56.452Z,9.55
2022-12-01T00:07:44.855Z,9.86
2022-12-01T00:10:35.804Z,8.36
2022-12-01T00:13:23.984Z,6.94
2022-12-01T00:15:59.138Z,6.08
2022-12-01T00:18:46.948Z,5.47
2022-12-01T00:21:22.919Z,4.99
2022-12-01T00:24:10.791Z,4.58
2022-12-01T00:26:52.780Z,4.22
2022-12-01T00:29:40.801Z,3.91
2022-12-01T00:32:22.784Z,4.43
2022-12-01T00:35:18.775Z,7.69
2022-12-01T00:38:06.779Z,9.80
2022-12-01T00:40:41.922Z,9.04
2022-12-01T00:43:30.931Z,7.50
2022-12-01T00:46:06.049Z,6.42
2022-12-01T00:48:53.759Z,5.66
2022-12-01T00:51:34.776Z,5.11
2022-12-01T00:54:22.916Z,4.64
2022-12-01T00:56:57.920Z,4.58
2022-12-01T00:59:45.938Z,7.24
2022-12-01T01:02:20.982Z,9.62
2022-12-01T01:05:08.767Z,9.63
2022-12-01T01:07:49.962Z,8.08
2022-12-01T01:10:30.736Z,6.86
2022-12-01T01:13:11.908Z,5.98
2022-12-01T01:15:52.789Z,5.40
2022-12-01T01:18:41.771Z,4.93
2022-12-01T01:21:18.426Z,4.55
2022-12-01T01:24:08.724Z,6.01
2022-12-01T01:26:43.249Z,9.06
2022-12-01T01:29:30.789Z,9.94
2022-12-01T01:32:05.508Z,8.59
2022-12-01T01:34:53.781Z,7.28
2022-12-01T01:37:34.788Z,6.37
2022-12-01T01:40:16.898Z,5.68
2022-12-01T01:42:57.720Z,5.17
2022-12-01T01:45:38.917Z,4.72
2022-12-01T01:48:20.768Z,4.41
2022-12-01T01:51:03.014Z,4.13
2022-12-01T01:53:44.755Z,3.94
2022-12-01T01:56:25.965Z,6.05
2022-12-01T01:59:13.766Z,8.94
2022-12-01T02:01:49.261Z,9.86
2022-12-01T02:04:36.776Z,8.48
2022-12-01T02:07:11.980Z,7.11
2022-12-01T02:10:00.774Z,6.21
2022-12-01T02:13:13.753Z,5.56
2022-12-01T02:16:23.852Z,4.91
2022-12-01T02:19:26.750Z,4.43
2022-12-01T02:22:32.918Z,4.66
2022-12-01T02:25:29.744Z,8.01
2022-12-01T02:29:00.760Z,9.83
2022-12-01T02:32:00.883Z,8.36
2022-12-01T02:34:53.746Z,6.93
2022-12-01T02:37:34.884Z,5.97
2022-12-01T02:40:58.778Z,5.39
2022-12-01T02:43:55.888Z,4.77
2022-12-01T02:46:43.925Z,4.36
2022-12-01T02:49:39.952Z,4.10
2022-12-01T02:52:16.590Z,6.49
2022-12-01T02:55:05.766Z,9.34
2022-12-01T02:57:40.312Z,9.83
2022-12-01T03:00:29.761Z,8.35
2022-12-01T03:03:36.749Z,7.04
2022-12-01T03:06:30.905Z,5.97
2022-12-01T03:09:40.903Z,5.31
2022-12-01T03:13:03.961Z,4.70
2022-12-01T03:15:55.174Z,4.27
2022-12-01T03:18:49.748Z,3.97
2022-12-01T03:21:48.736Z,4.67
2022-12-01T03:24:39.736Z,8.21
2022-12-01T03:27:14.945Z,9.75
2022-12-01T03:30:05.730Z,8.88
2022-12-01T03:32:47.618Z,7.38
2022-12-01T03:35:40.759Z,6.29
2022-12-01T03:38:27.711Z,5.51
2022-12-01T03:41:30.711Z,4.93
2022-12-01T03:44:30.727Z,4.43
2022-12-01T03:47:24.744Z,5.35
2022-12-01T03:50:06.730Z,8.46
2022-12-01T03:53:13.944Z,9.64
2022-12-01T03:56:09.879Z,8.15
2022-12-01T03:58:55.738Z,6.74
2022-12-01T04:01:50.762Z,5.82
2022-12-01T04:04:38.756Z,5.18
2022-12-01T04:07:21.791Z,4.70
2022-12-01T04:10:04.362Z,4.31
2022-12-01T04:12:52.747Z,5.46
2022-12-01T04:15:28.158Z,8.45
2022-12-01T04:18:15.733Z,9.74
2022-12-01T04:20:56.744Z,8.62
2022-12-01T04:24:03.738Z,7.12
2022-12-01T04:26:52.743Z,6.02
2022-12-01T04:29:40.719Z,5.28
2022-12-01T04:32:15.880Z,5.33
2022-12-01T04:35:03.724Z,8.22
2022-12-01T04:37:45.736Z,9.90
2022-12-01T04:40:40.728Z,8.74
2022-12-01T04:43:28.743Z,7.15
2022-12-01T04:46:04.063Z,6.19
2022-12-01T04:48:51.717Z,5.45
2022-12-01T04:51:27.035Z,4.88
2022-12-01T04:54:14.720Z,4.42
2022-12-01T04:56:49.885Z,4.07
2022-12-01T04:59:37.838Z,4.56
2022-12-01T05:02:12.870Z,7.70
2022-12-01T05:05:00.746Z,9.71
2022-12-01T05:07:35.879Z,9.23
2022-12-01T05:10:25.752Z,7.68
2022-12-01T05:13:00.853Z,6.52
2022-12-01T05:15:48.777Z,5.69
2022-12-01T05:18:30.732Z,5.08
2022-12-01T05:21:25.709Z,4.89
2022-12-01T05:24:14.739Z,7.75
2022-12-01T05:26:49.870Z,9.70
2022-12-01T05:29:39.876Z,8.83
2022-12-01T05:32:15.011Z,7.28
2022-12-01T05:35:02.846Z,6.21
2022-12-01T05:37:50.715Z,5.43
2022-12-01T05:40:25.305Z,4.86
2022-12-01T05:43:13.857Z,4.44
2022-12-01T05:45:56.777Z,4.09
2022-12-01T05:48:44.735Z,3.77
2022-12-01T05:51:19.175Z,4.36
2022-12-01T05:54:06.710Z,7.56
2022-12-01T05:56:41.283Z,9.65
2022-12-01T05:59:28.692Z,9.75
2022-12-01T06:02:03.204Z,8.04
2022-12-01T06:04:50.669Z,6.71
2022-12-01T06:07:26.199Z,5.87
2022-12-01T06:10:13.916Z,5.25
2022-12-01T06:12:49.272Z,4.74
2022-12-01T06:15:37.739Z,4.33
2022-12-01T06:18:12.151Z,4.78
2022-12-01T06:21:00.921Z,7.87
2022-12-01T06:23:42.893Z,9.33
2022-12-01T06:26:37.895Z,8.07
2022-12-01T06:29:25.736Z,6.61
2022-12-01T06:32:01.020Z,5.68
2022-12-01T06:34:48.717Z,4.99
2022-12-01T06:37:30.687Z,4.48
2022-12-01T06:40:26.681Z,4.05
2022-12-01T06:43:14.692Z,4.68
2022-12-01T06:45:50.046Z,7.81
2022-12-01T06:48:38.712Z,9.13
2022-12-01T06:51:20.694Z,8.09
2022-12-01T06:54:15.858Z,6.62
2022-12-01T06:57:03.972Z,5.56
2022-12-01T06:59:38.841Z,4.90
2022-12-01T07:02:26.907Z,4.86
2022-12-01T07:05:08.697Z,7.66
2022-12-01T07:07:59.677Z,9.63
2022-12-01T07:10:35.111Z,8.64
2022-12-01T07:13:22.842Z,7.18
2022-12-01T07:15:57.981Z,6.15
2022-12-01T07:18:47.862Z,5.47
2022-12-01T07:21:30.883Z,4.94
2022-12-01T07:24:25.676Z,4.46
2022-12-01T07:27:13.694Z,4.52
2022-12-01T07:29:48.992Z,7.39
2022-12-01T07:32:36.694Z,9.62
2022-12-01T07:35:11.835Z,9.29
2022-12-01T07:38:03.855Z,7.77
2022-12-01T07:40:38.997Z,6.56
2022-12-01T07:43:26.828Z,5.75
2022-12-01T07:46:01.996Z,5.18
2022-12-01T07:48:49.886Z,4.80
2022-12-01T07:51:24.830Z,6.76
2022-12-01T07:54:13.680Z,9.44
2022-12-01T07:56:49.029Z,9.90
2022-12-01T07:59:36.704Z,8.42
2022-12-01T08:02:18.758Z,7.14
2022-12-01T08:05:06.669Z,6.23
2022-12-01T08:07:41.935Z,5.58
2022-12-01T08:10:29.682Z,5.04
2022-12-01T08:13:04.868Z,4.61
2022-12-01T08:15:52.893Z,4.27
2022-12-01T08:18:28.819Z,5.43
2022-12-01T08:21:20.702Z,8.60
2022-12-01T08:24:06.669Z,9.84
2022-12-01T08:27:01.837Z,8.42
2022-12-01T08:29:49.844Z,6.99
2022-12-01T08:32:24.828Z,6.08
2022-12-01T08:35:12.667Z,5.44
2022-12-01T08:37:47.824Z,4.91
2022-12-01T08:40:35.703Z,5.41
2022-12-01T08:43:34.737Z,8.61
2022-12-01T08:46:25.883Z,9.82
2022-12-01T08:49:05.873Z,8.45
2022-12-01T08:51:56.675Z,7.12
2022-12-01T08:54:31.839Z,6.27
2022-12-01T08:57:13.796Z,5.67
2022-12-01T08:59:56.920Z,5.22
2022-12-01T09:02:38.740Z,5.74
2022-12-01T09:05:26.691Z,8.66
2022-12-01T09:08:40.914Z,9.96
2022-12-01T09:11:28.839Z,8.30
2022-12-01T09:14:05.843Z,7.14
2022-12-01T09:16:56.804Z,6.34
2022-12-01T09:19:31.827Z,5.77
2022-12-01T09:22:19.803Z,5.36
2022-12-01T09:25:01.622Z,5.14
2022-12-01T09:27:49.821Z,7.68
2022-12-01T09:30:30.720Z,10.00
2022-12-01T09:33:11.895Z,9.27
2022-12-01T09:35:52.754Z,7.78
2022-12-01T09:38:39.885Z,6.81
2022-12-01T09:41:30.778Z,6.08
2022-12-01T09:44:31.821Z,5.48
2022-12-01T09:47:21.814Z,5.03
2022-12-01T09:50:14.687Z,5.33
2022-12-01T09:52:56.155Z,8.42
2022-12-01T09:55:43.639Z,9.93
2022-12-01T09:58:24.800Z,8.75
2022-12-01T10:01:12.690Z,7.45
2022-12-01T10:03:52.860Z,6.57
2022-12-01T10:06:49.664Z,5.90
2022-12-01T10:09:40.959Z,5.43
2022-12-01T10:12:34.856Z,5.04
2022-12-01T10:15:38.708Z,4.71
2022-12-01T10:18:34.194Z,5.38
2022-12-01T10:21:30.651Z,8.73
2022-12-01T10:24:14.983Z,9.90
2022-12-01T10:27:08.845Z,8.60
2022-12-01T10:29:56.795Z,7.36
2022-12-01T10:33:26.823Z,6.49
2022-12-01T10:36:16.651Z,5.78
2022-12-01T10:38:51.937Z,5.38
2022-12-01T10:41:42.671Z,5.04
2022-12-01T10:44:17.980Z,4.73
2022-12-01T10:47:05.627Z,4.45
2022-12-01T10:49:53.089Z,4.20
2022-12-01T10:52:52.637Z,3.99
2022-12-01T10:55:48.175Z,4.28
2022-12-01T10:58:24.933Z,7.55
2022-12-01T11:01:13.887Z,9.83
2022-12-01T11:03:48.917Z,9.31
2022-12-01T11:06:37.633Z,7.91
2022-12-01T11:09:14.804Z,6.85
2022-12-01T11:12:04.632Z,6.14
2022-12-01T11:14:51.808Z,5.62
2022-12-01T11:17:49.641Z,5.16
2022-12-01T11:20:36.215Z,4.79
2022-12-01T11:23:33.637Z,4.51
2022-12-01T11:26:21.075Z,6.36
2022-12-01T11:29:11.828Z,9.49
2022-12-01T11:31:51.002Z,10.32
2022-12-01T11:34:44.735Z,8.88
2022-12-01T11:37:23.777Z,7.54
2022-12-01T11:40:25.687Z,6.69
2022-12-01T11:43:02.787Z,6.05
2022-12-01T11:45:51.841Z,5.54
2022-12-01T11:48:42.631Z,5.13
2022-12-01T11:51:30.633Z,4.75
2022-12-01T11:54:28.797Z,4.46
2022-12-01T11:57:33.685Z,4.22
2022-12-01T12:00:19.993Z,4.02
2022-12-01T12:03:26.704Z,3.86
2022-12-01T12:06:39.826Z,3.71
2022-12-01T12:09:43.522Z,5.28
2022-12-01T12:12:37.790Z,8.87
2022-12-01T12:15:22.640Z,9.82
2022-12-01T12:18:22.765Z,8.37
2022-12-01T12:21:18.639Z,7.04
2022-12-01T12:24:18.863Z,6.14
2022-12-01T12:27:29.719Z,5.54
2022-12-01T12:30:37.729Z,4.99
2022-12-01T12:33:33.690Z,4.56
2022-12-01T12:36:17.752Z,4.30
2022-12-01T12:39:16.751Z,6.51
2022-12-01T12:41:56.795Z,9.40
2022-12-01T12:45:10.641Z,9.97
2022-12-01T12:48:07.621Z,8.23
2022-12-01T12:51:15.744Z,6.94
2022-12-01T12:54:39.721Z,6.09
2022-12-01T12:57:34.616Z,5.48
2022-12-01T13:00:28.651Z,5.05
2022-12-01T13:03:16.643Z,4.70
2022-12-01T13:06:07.753Z,4.36
2022-12-01T13:09:05.935Z,5.48
2022-12-01T13:12:04.618Z,8.88
2022-12-01T13:15:05.617Z,9.68
2022-12-01T13:17:48.633Z,8.15
2022-12-01T13:20:39.612Z,6.86
2022-12-01T13:23:24.713Z,6.06
2022-12-01T13:26:08.705Z,5.47
2022-12-01T13:28:56.743Z,5.01
2022-12-01T13:31:55.578Z,4.55
2022-12-01T13:34:39.713Z,4.20
2022-12-01T13:37:39.631Z,3.93
2022-12-01T13:40:28.128Z,3.70
2022-12-01T13:43:17.610Z,3.58
2022-12-01T13:46:15.652Z,5.99
2022-12-01T13:49:06.616Z,9.09
2022-12-01T13:52:38.752Z,9.25
2022-12-01T13:55:26.547Z,7.28
2022-12-01T13:58:10.563Z,6.33
2022-12-01T14:01:10.023Z,5.62
2022-12-01T14:04:08.618Z,5.08
2022-12-01T14:06:49.664Z,4.68
2022-12-01T14:09:37.547Z,4.35
2022-12-01T14:12:18.761Z,4.06
2022-12-01T14:15:10.599Z,3.81
2022-12-01T14:17:45.739Z,3.57
2022-12-01T14:20:34.599Z,4.72
2022-12-01T14:23:21.731Z,8.04
2022-12-01T14:26:20.620Z,9.28
2022-12-01T14:29:15.778Z,7.79
2022-12-01T14:32:16.808Z,6.44
2022-12-01T14:35:13.599Z,5.57
2022-12-01T14:38:03.614Z,4.98
2022-12-01T14:40:38.752Z,4.53
2022-12-01T14:43:46.616Z,4.21
2022-12-01T14:46:29.771Z,3.90
2022-12-01T14:49:11.613Z,3.65
2022-12-01T14:51:54.699Z,3.48
2022-12-01T14:54:46.612Z,5.34
2022-12-01T14:57:37.743Z,8.64
2022-12-01T15:00:28.585Z,9.56
2022-12-01T15:03:16.772Z,7.96
2022-12-01T15:05:58.610Z,6.70
2022-12-01T15:09:10.521Z,5.84
2022-12-01T15:11:53.959Z,5.16
2022-12-01T15:14:46.724Z,4.66
2022-12-01T15:17:33.301Z,4.24
2022-12-01T15:20:47.562Z,3.88
2022-12-01T15:23:21.995Z,3.57
2022-12-01T15:26:09.593Z,4.14
2022-12-01T15:28:50.547Z,7.29
2022-12-01T15:31:38.685Z,9.35
2022-12-01T15:34:23.917Z,8.51
2022-12-01T15:37:13.583Z,7.03
2022-12-01T15:43:27.581Z,5.23
2022-12-01T15:46:19.757Z,4.75
2022-12-01T15:48:54.765Z,4.31
2022-12-01T15:51:42.594Z,3.93
2022-12-01T15:54:36.588Z,3.77
2022-12-01T15:57:33.539Z,6.60
2022-12-01T16:00:28.736Z,9.09
2022-12-01T16:03:05.233Z,8.42
2022-12-01T16:05:53.683Z,7.01
2022-12-01T16:08:34.784Z,5.99
2022-12-01T16:11:24.568Z,5.27
2022-12-01T16:14:09.605Z,4.78
2022-12-01T16:16:58.722Z,4.35
2022-12-01T16:19:45.585Z,3.98
2022-12-01T16:22:41.133Z,3.64
2022-12-01T16:25:37.206Z,3.35
2022-12-01T16:28:20.879Z,5.12
2022-12-01T16:31:05.554Z,8.27
2022-12-01T16:33:54.582Z,9.26
2022-12-01T16:36:29.053Z,7.83
2022-12-01T16:39:20.641Z,6.46
2022-12-01T16:42:00.608Z,5.52
2022-12-01T16:44:49.622Z,4.87
2022-12-01T16:47:26.104Z,4.40
2022-12-01T16:50:13.564Z,4.04
2022-12-01T16:52:49.518Z,3.72
2022-12-01T16:56:07.565Z,3.42
2022-12-01T16:58:42.890Z,3.14
2022-12-01T17:01:32.088Z,2.93
2022-12-01T17:04:07.931Z,2.75
2022-12-01T17:06:55.719Z,3.44
2022-12-01T17:09:31.165Z,6.83
2022-12-01T17:12:19.581Z,8.99
2022-12-01T17:14:54.139Z,8.88
2022-12-01T17:17:42.778Z,7.32
2022-12-01T17:20:18.486Z,6.11
2022-12-01T17:23:06.563Z,5.29
2022-12-01T17:25:48.585Z,4.71
2022-12-01T17:28:45.556Z,4.21
2022-12-01T17:31:34.581Z,3.81
2022-12-01T17:34:12.699Z,3.51
2022-12-01T17:37:02.571Z,3.23
2022-12-01T17:39:52.580Z,2.98
2022-12-01T17:42:33.574Z,2.77
2022-12-01T17:45:15.856Z,4.05
2022-12-01T17:47:57.680Z,7.27
2022-12-01T17:50:40.247Z,9.06
2022-12-01T17:53:28.562Z,8.21
2022-12-01T17:56:03.705Z,6.73
2022-12-01T17:58:51.673Z,5.68
2022-12-01T18:01:34.612Z,4.98
2022-12-01T18:04:22.535Z,4.46
2022-12-01T18:07:04.713Z,4.05
2022-12-01T18:10:00.859Z,3.68
2022-12-01T18:12:48.575Z,3.33
2022-12-01T18:15:29.229Z,4.36
2022-12-01T18:18:19.557Z,7.73
2022-12-01T18:21:01.832Z,9.00
2022-12-01T18:24:02.368Z,7.61
2022-12-01T18:26:52.591Z,6.17
2022-12-01T18:29:47.662Z,5.26
2022-12-01T18:32:39.054Z,4.59
2022-12-01T18:35:21.540Z,4.13
2022-12-01T18:38:16.548Z,3.71
2022-12-01T18:41:05.650Z,3.36
2022-12-01T18:43:43.804Z,3.09
2022-12-01T18:46:35.612Z,2.85
2022-12-01T18:49:17.536Z,3.86
2022-12-01T18:52:07.527Z,7.29
2022-12-01T18:54:42.751Z,9.06
2022-12-01T18:57:30.617Z,8.29
2022-12-01T19:00:06.486Z,6.85
2022-12-01T19:02:56.789Z,5.86
2022-12-01T19:05:40.610Z,5.14
2022-12-01T19:08:35.817Z,4.56
2022-12-01T19:11:26.123Z,4.09
2022-12-01T19:14:02.272Z,3.75
2022-12-01T19:17:09.764Z,3.46
2022-12-01T19:19:49.844Z,3.18
2022-12-01T19:22:32.067Z,2.97
2022-12-01T19:25:17.010Z,3.72
2022-12-01T19:28:03.510Z,6.99
2022-12-01T19:30:52.536Z,8.68
2022-12-01T19:33:40.815Z,7.44
2022-12-01T19:36:28.673Z,5.99
2022-12-01T19:39:12.522Z,5.11
2022-12-01T19:41:54.803Z,4.47
2022-12-01T19:44:36.756Z,4.01
2022-12-01T19:47:25.000Z,3.61
2022-12-01T19:50:00.289Z,3.30
2022-12-01T19:52:49.546Z,3.05
2022-12-01T19:55:24.783Z,3.53
2022-12-01T19:58:13.690Z,6.72
2022-12-01T20:00:50.573Z,8.60
2022-12-01T20:03:39.888Z,7.55
2022-12-01T20:06:22.280Z,6.19
2022-12-01T20:09:16.541Z,5.20
2022-12-01T20:11:59.132Z,4.53
2022-12-01T20:14:42.687Z,4.04
2022-12-01T20:17:25.462Z,3.67
2022-12-01T20:20:06.877Z,3.30
2022-12-01T20:22:50.500Z,3.02
2022-12-01T20:25:33.937Z,3.27
2022-12-01T20:28:16.535Z,6.22
2022-12-01T20:31:06.535Z,8.68
2022-12-01T20:33:41.848Z,8.87
2022-12-01T20:36:37.196Z,7.40
2022-12-01T20:39:14.586Z,6.03
2022-12-01T20:42:05.221Z,5.07
2022-12-01T20:44:47.647Z,4.40
2022-12-01T20:47:31.670Z,3.85
2022-12-01T20:50:15.389Z,3.47
2022-12-01T20:52:57.031Z,3.13
2022-12-01T20:55:44.577Z,2.86
2022-12-01T20:58:37.545Z,2.59
2022-12-01T21:01:17.616Z,2.38
2022-12-01T21:04:07.499Z,3.05
2022-12-01T21:06:42.411Z,6.46
2022-12-01T21:09:31.514Z,8.21
2022-12-01T21:12:39.016Z,7.10
2022-12-01T21:15:29.266Z,5.52
2022-12-01T21:18:10.389Z,4.64
2022-12-01T21:20:59.491Z,4.02
2022-12-01T21:23:43.350Z,3.57
2022-12-01T21:26:34.874Z,3.19
2022-12-01T21:29:29.308Z,2.86
2022-12-01T21:32:26.673Z,2.57
2022-12-01T21:35:20.524Z,4.07
2022-12-01T21:38:07.769Z,7.49
2022-12-01T21:40:57.862Z,8.65
2022-12-01T21:43:43.747Z,7.29
2022-12-01T21:46:38.564Z,5.88
2022-12-01T21:49:49.232Z,4.94
2022-12-01T21:52:50.427Z,4.18
2022-12-01T21:55:33.791Z,3.70
2022-12-01T21:58:27.565Z,3.28
2022-12-01T22:01:06.492Z,2.88
2022-12-01T22:04:00.569Z,2.57
2022-12-01T22:06:48.662Z,2.74
2022-12-01T22:09:38.522Z,5.80
2022-12-01T22:12:24.971Z,8.22
2022-12-01T22:15:09.554Z,7.63
2022-12-01T22:17:51.704Z,6.08
2022-12-01T22:20:32.533Z,5.05
2022-12-01T22:23:17.616Z,4.32
2022-12-01T22:25:58.491Z,3.85
2022-12-01T22:28:53.489Z,3.42
2022-12-01T22:31:41.491Z,3.05
2022-12-01T22:34:25.443Z,2.76
2022-12-01T22:37:29.512Z,2.50
2022-12-01T22:40:40.566Z,2.26
2022-12-01T22:43:24.454Z,2.07
2022-12-01T22:46:37.611Z,1.89
2022-12-01T22:49:30.568Z,1.84
2022-12-01T22:52:27.614Z,4.69
2022-12-01T22:55:02.572Z,7.64
2022-12-01T22:57:50.503Z,7.88
2022-12-01T23:00:37.589Z,6.35
2022-12-01T23:03:32.457Z,5.06
2022-12-01T23:07:11.681Z,4.22
2022-12-01T23:09:50.710Z,3.52
2022-12-01T23:12:41.636Z,3.12
2022-12-01T23:15:36.500Z,2.75
2022-12-01T23:18:33.481Z,2.56
2022-12-01T23:21:15.464Z,5.15
2022-12-01T23:24:10.504Z,7.84
2022-12-01T23:26:58.475Z,7.92
2022-12-01T23:29:40.686Z,6.35
2022-12-01T23:32:35.626Z,5.03
2022-12-01T23:35:25.468Z,4.09
2022-12-01T23:38:00.622Z,3.47
2022-12-01T23:40:48.470Z,2.98
2022-12-01T23:43:28.651Z,2.58
2022-12-01T23:46:26.512Z,4.17
2022-12-01T23:49:07.533Z,7.23
2022-12-01T23:51:53.475Z,8.15
2022-12-01T23:54:38.602Z,6.73
2022-12-01T23:57:29.471Z,5.29
